Time,TemperatureF,DewpointF,PressureIn,WindDirection,WindDirectionDegrees,WindSpeedMPH,WindSpeedGustMPH,Humidity,HourlyPrecipIn,Conditions,Clouds,dailyrainin,SoftwareType,DateUTC
2013-02-22 00:00:00,63.4,58.1,29.93,North,-999,0.0,0.0,83,0.00,,,-99.99,WeatherLink 5.7,2013-02-22 05:00:00,
2013-02-22 00:15:00,63.4,57.8,29.93,North,-999,0.0,0.0,82,0.00,,,-99.99,WeatherLink 5.7,2013-02-22 05:15:00,
2013-02-22 00:30:00,63.2,57.6,29.92,North,-999,0.0,0.0,82,0.00,,,-99.99,WeatherLink 5.7,2013-02-22 05:30:00,
2013-02-22 00:45:00,63.0,57.4,29.92,North,-999,0.0,0.0,82,0.00,,,-99.99,WeatherLink 5.7,2013-02-22 05:45:00,
2013-02-22 01:00:00,62.9,58.0,29.92,North,-999,0.0,0.0,84,0.00,,,-99.99,WeatherLink 5.7,2013-02-22 06:00:00,
2013-02-22 01:15:00,62.9,58.0,29.92,North,-999,0.0,0.0,84,0.00,,,-99.99,WeatherLink 5.7,2013-02-22 06:15:00,
2013-02-22 01:30:00,63.0,58.1,29.92,North,-999,0.0,0.0,84,0.00,,,-99.99,WeatherLink 5.7,2013-02-22 06:30:00,
2013-02-22 01:45:00,63.2,58.3,29.92,North,-999,0.0,0.0,84,0.00,,,-99.99,WeatherLink 5.7,2013-02-22 06:45:00,
2013-02-22 02:00:00,63.1,58.2,29.92,North,-999,0.0,0.0,84,0.00,,,-99.99,WeatherLink 5.7,2013-02-22 07:00:00,
2013-02-22 02:15:00,63.1,58.8,29.92,North,-999,0.0,0.0,86,0.00,,,-99.99,WeatherLink 5.7,2013-02-22 07:15:00,
2013-02-22 02:30:00,63.2,58.9,29.92,North,-999,0.0,0.0,86,0.00,,,-99.99,WeatherLink 5.7,2013-02-22 07:30:00,
2013-02-22 02:45:00,63.2,58.9,29.92,North,-999,0.0,0.0,86,0.00,,,-99.99,WeatherLink 5.7,2013-02-22 07:45:00,
2013-02-22 03:00:00,63.1,59.2,29.92,North,-999,0.0,0.0,87,0.00,,,-99.99,WeatherLink 5.7,2013-02-22 08:00:00,
2013-02-22 03:15:00,62.8,58.9,29.92,North,-999,0.0,0.0,87,0.00,,,-99.99,WeatherLink 5.7,2013-02-22 08:15:00,
2013-02-22 03:30:00,62.5,58.3,29.92,North,-999,0.0,0.0,86,0.00,,,-99.99,WeatherLink 5.7,2013-02-22 08:30:00,
2013-02-22 03:45:00,62.3,58.4,29.92,North,-999,0.0,0.0,87,0.00,,,-99.99,WeatherLink 5.7,2013-02-22 08:45:00,
2013-02-22 04:00:00,62.4,58.8,29.92,North,-999,0.0,0.0,88,0.00,,,-99.99,WeatherLink 5.7,2013-02-22 09:00:00,
2013-02-22 04:15:00,62.5,59.2,29.92,North,-999,0.0,0.0,89,0.00,,,-99.99,WeatherLink 5.7,2013-02-22 09:15:00,
2013-02-22 04:30:00,62.7,59.4,29.92,North,-999,0.0,0.0,89,0.00,,,-99.99,WeatherLink 5.7,2013-02-22 09:30:00,
2013-02-22 04:45:00,62.9,59.6,29.92,North,-999,0.0,0.0,89,0.00,,,-99.99,WeatherLink 5.7,2013-02-22 09:45:00,
2013-02-22 05:00:00,62.9,59.6,29.92,North,-999,0.0,0.0,89,0.00,,,-99.99,WeatherLink 5.7,2013-02-22 10:00:00,
2013-02-22 05:15:00,63.1,59.8,29.93,North,0,0.0,1.0,89,0.00,,,-99.99,WeatherLink 5.7,2013-02-22 10:15:00,
2013-02-22 05:30:00,63.2,60.2,29.93,North,-999,0.0,0.0,90,0.00,,,-99.99,WeatherLink 5.7,2013-02-22 10:30:00,
2013-02-22 05:45:00,63.4,60.4,29.93,North,-999,0.0,0.0,90,0.00,,,-99.99,WeatherLink 5.7,2013-02-22 10:45:00,
2013-02-22 06:00:00,63.4,60.4,29.94,North,-999,0.0,0.0,90,0.00,,,-99.99,WeatherLink 5.7,2013-02-22 11:00:00,
2013-02-22 06:15:00,63.4,60.4,29.93,North,0,0.0,2.0,90,0.00,,,-99.99,WeatherLink 5.7,2013-02-22 11:15:00,
2013-02-22 06:30:00,63.5,60.5,29.94,North,0,0.0,3.0,90,0.00,,,-99.99,WeatherLink 5.7,2013-02-22 11:30:00,
2013-02-22 06:45:00,63.8,60.8,29.94,North,0,0.0,3.0,90,0.00,,,-99.99,WeatherLink 5.7,2013-02-22 11:45:00,
2013-02-22 07:00:00,64.0,61.0,29.94,North,0,0.0,9.0,90,0.00,,,-99.99,WeatherLink 5.7,2013-02-22 12:00:00,
2013-02-22 07:15:00,64.3,61.6,29.95,North,0,0.0,4.0,91,0.00,,,-99.99,WeatherLink 5.7,2013-02-22 12:15:00,
2013-02-22 07:30:00,64.8,62.1,29.95,North,0,1.0,10.0,91,0.00,,,-99.99,WeatherLink 5.7,2013-02-22 12:30:00,
2013-02-22 07:45:00,65.5,62.8,29.96,North,0,1.0,7.0,91,0.00,,,-99.99,WeatherLink 5.7,2013-02-22 12:45:00,
2013-02-22 08:00:00,66.2,63.5,29.96,North,0,1.0,7.0,91,0.00,,,-99.99,WeatherLink 5.7,2013-02-22 13:00:00,
2013-02-22 08:15:00,66.8,64.1,29.96,North,0,1.0,7.0,91,0.00,,,-99.99,WeatherLink 5.7,2013-02-22 13:15:00,
2013-02-22 08:30:00,67.5,64.8,29.97,North,0,1.0,8.0,91,0.00,,,-99.99,WeatherLink 5.7,2013-02-22 13:30:00,
2013-02-22 08:45:00,68.4,65.4,29.97,North,0,2.0,11.0,90,0.00,,,-99.99,WeatherLink 5.7,2013-02-22 13:45:00,
2013-02-22 09:00:00,69.6,66.5,29.97,North,0,2.0,11.0,90,0.02,,,-99.99,WeatherLink 5.7,2013-02-22 14:00:00,
2013-02-22 09:15:00,70.7,67.0,29.97,North,0,2.0,14.0,88,0.02,,,-99.99,WeatherLink 5.7,2013-02-22 14:15:00,
2013-02-22 09:30:00,71.8,67.7,29.97,North,0,2.0,11.0,87,0.02,,,-99.99,WeatherLink 5.7,2013-02-22 14:30:00,
2013-02-22 09:45:00,72.8,68.0,29.97,North,0,1.0,11.0,85,0.02,,,-99.99,WeatherLink 5.7,2013-02-22 14:45:00,
2013-02-22 10:00:00,73.7,68.6,29.97,North,0,1.0,12.0,84,0.00,,,-99.99,WeatherLink 5.7,2013-02-22 15:00:00,
2013-02-22 10:15:00,75.1,68.9,29.97,North,0,1.0,10.0,81,0.00,,,-99.99,WeatherLink 5.7,2013-02-22 15:15:00,
2013-02-22 10:30:00,76.2,69.2,29.97,North,0,1.0,10.0,79,0.00,,,-99.99,WeatherLink 5.7,2013-02-22 15:30:00,
2013-02-22 10:45:00,77.1,69.7,29.96,North,0,1.0,10.0,78,0.00,,,-99.99,WeatherLink 5.7,2013-02-22 15:45:00,
2013-02-22 11:00:00,78.0,69.4,29.96,North,0,0.0,7.0,75,0.00,,,-99.99,WeatherLink 5.7,2013-02-22 16:00:00,
2013-02-22 11:15:00,78.6,69.2,29.96,North,0,0.0,7.0,73,0.00,,,-99.99,WeatherLink 5.7,2013-02-22 16:15:00,
2013-02-22 11:30:00,78.5,69.1,29.96,North,0,1.0,13.0,73,0.00,,,-99.99,WeatherLink 5.7,2013-02-22 16:30:00,
2013-02-22 11:45:00,78.8,68.6,29.96,North,0,1.0,10.0,71,0.00,,,-99.99,WeatherLink 5.7,2013-02-22 16:45:00,
2013-02-22 12:00:00,79.4,68.3,29.95,North,0,1.0,11.0,69,0.00,,,-99.99,WeatherLink 5.7,2013-02-22 17:00:00,
2013-02-22 12:15:00,79.8,68.3,29.95,North,0,1.0,10.0,68,0.00,,,-99.99,WeatherLink 5.7,2013-02-22 17:15:00,
2013-02-22 12:30:00,80.2,67.8,29.95,North,0,0.0,8.0,66,0.00,,,-99.99,WeatherLink 5.7,2013-02-22 17:30:00,
2013-02-22 12:45:00,80.5,68.1,29.94,North,0,0.0,7.0,66,0.00,,,-99.99,WeatherLink 5.7,2013-02-22 17:45:00,
2013-02-22 13:00:00,80.8,67.9,29.94,North,0,0.0,6.0,65,0.00,,,-99.99,WeatherLink 5.7,2013-02-22 18:00:00,
2013-02-22 13:15:00,81.2,68.3,29.93,North,0,0.0,11.0,65,0.00,,,-99.99,WeatherLink 5.7,2013-02-22 18:15:00,
2013-02-22 13:30:00,81.7,68.3,29.93,North,0,0.0,9.0,64,0.00,,,-99.99,WeatherLink 5.7,2013-02-22 18:30:00,
2013-02-22 13:45:00,81.6,67.8,29.92,North,0,0.0,11.0,63,0.00,,,-99.99,WeatherLink 5.7,2013-02-22 18:45:00,
2013-02-22 14:00:00,81.4,67.6,29.92,North,0,0.0,11.0,63,0.00,,,-99.99,WeatherLink 5.7,2013-02-22 19:00:00,
2013-02-22 14:15:00,81.1,67.3,29.92,North,0,0.0,11.0,63,0.00,,,-99.99,WeatherLink 5.7,2013-02-22 19:15:00,
2013-02-22 14:30:00,80.8,66.6,29.92,North,0,1.0,14.0,62,0.00,,,-99.99,WeatherLink 5.7,2013-02-22 19:30:00,
2013-02-22 14:45:00,80.5,66.7,29.91,North,0,1.0,18.0,63,0.00,,,-99.99,WeatherLink 5.7,2013-02-22 19:45:00,
2013-02-22 15:00:00,80.2,66.0,29.91,North,0,0.0,9.0,62,0.00,,,-99.99,WeatherLink 5.7,2013-02-22 20:00:00,
2013-02-22 15:15:00,80.0,66.3,29.91,North,0,1.0,12.0,63,0.00,,,-99.99,WeatherLink 5.7,2013-02-22 20:15:00,
2013-02-22 15:30:00,79.9,66.6,29.91,North,0,1.0,13.0,64,0.00,,,-99.99,WeatherLink 5.7,2013-02-22 20:30:00,
2013-02-22 15:45:00,80.0,67.2,29.91,North,0,1.0,10.0,65,0.00,,,-99.99,WeatherLink 5.7,2013-02-22 20:45:00,
2013-02-22 16:00:00,79.9,67.1,29.91,North,0,0.0,7.0,65,0.00,,,-99.99,WeatherLink 5.7,2013-02-22 21:00:00,
2013-02-22 16:15:00,79.9,67.1,29.91,North,0,1.0,15.0,65,0.00,,,-99.99,WeatherLink 5.7,2013-02-22 21:15:00,
2013-02-22 16:30:00,79.7,66.9,29.91,North,0,0.0,4.0,65,0.00,,,-99.99,WeatherLink 5.7,2013-02-22 21:30:00,
2013-02-22 16:45:00,78.9,66.6,29.91,North,0,0.0,7.0,66,0.00,,,-99.99,WeatherLink 5.7,2013-02-22 21:45:00,
2013-02-22 17:00:00,78.3,66.4,29.91,North,0,0.0,11.0,67,0.00,,,-99.99,WeatherLink 5.7,2013-02-22 22:00:00,
2013-02-22 17:15:00,77.7,66.3,29.91,North,0,0.0,12.0,68,0.00,,,-99.99,WeatherLink 5.7,2013-02-22 22:15:00,
2013-02-22 17:30:00,77.2,65.8,29.91,North,0,0.0,10.0,68,0.00,,,-99.99,WeatherLink 5.7,2013-02-22 22:30:00,
2013-02-22 17:45:00,76.7,65.8,29.91,North,0,0.0,5.0,69,0.00,,,-99.99,WeatherLink 5.7,2013-02-22 22:45:00,
2013-02-22 18:00:00,75.9,65.8,29.92,North,0,0.0,7.0,71,0.00,,,-99.99,WeatherLink 5.7,2013-02-22 23:00:00,
2013-02-22 18:15:00,75.2,65.1,29.92,North,-999,0.0,0.0,71,0.00,,,-99.99,WeatherLink 5.7,2013-02-22 23:15:00,
2013-02-22 18:30:00,74.5,65.3,29.92,North,0,0.0,1.0,73,0.00,,,-99.99,WeatherLink 5.7,2013-02-22 23:30:00,
2013-02-22 18:45:00,73.8,65.0,29.93,North,0,0.0,4.0,74,0.00,,,-99.99,WeatherLink 5.7,2013-02-22 23:45:00,
2013-02-22 19:00:00,73.2,64.8,29.92,North,0,0.0,2.0,75,0.00,,,-99.99,WeatherLink 5.7,2013-02-23 00:00:00,
2013-02-22 19:15:00,72.7,64.3,29.93,North,-999,0.0,0.0,75,0.00,,,-99.99,WeatherLink 5.7,2013-02-23 00:15:00,
2013-02-22 19:30:00,72.1,64.1,29.93,North,-999,0.0,0.0,76,0.00,,,-99.99,WeatherLink 5.7,2013-02-23 00:30:00,
2013-02-22 19:45:00,71.7,63.7,29.94,North,-999,0.0,0.0,76,0.00,,,-99.99,WeatherLink 5.7,2013-02-23 00:45:00,
2013-02-22 20:00:00,71.3,63.7,29.94,North,-999,0.0,0.0,77,0.00,,,-99.99,WeatherLink 5.7,2013-02-23 01:00:00,
2013-02-22 20:15:00,70.9,63.7,29.94,North,-999,0.0,0.0,78,0.00,,,-99.99,WeatherLink 5.7,2013-02-23 01:15:00,
2013-02-22 20:30:00,70.6,63.0,29.94,North,-999,0.0,0.0,77,0.00,,,-99.99,WeatherLink 5.7,2013-02-23 01:30:00,
2013-02-22 20:45:00,70.1,62.9,29.94,North,-999,0.0,0.0,78,0.00,,,-99.99,WeatherLink 5.7,2013-02-23 01:45:00,
2013-02-22 21:00:00,69.7,62.9,29.94,North,-999,0.0,0.0,79,0.00,,,-99.99,WeatherLink 5.7,2013-02-23 02:00:00,
2013-02-22 21:15:00,69.4,62.6,29.94,North,-999,0.0,0.0,79,0.00,,,-99.99,WeatherLink 5.7,2013-02-23 02:15:00,
2013-02-22 21:30:00,69.0,62.2,29.94,North,-999,0.0,0.0,79,0.00,,,-99.99,WeatherLink 5.7,2013-02-23 02:30:00,
2013-02-22 21:45:00,68.6,62.2,29.94,North,-999,0.0,0.0,80,0.00,,,-99.99,WeatherLink 5.7,2013-02-23 02:45:00,
2013-02-22 22:00:00,68.1,62.0,29.94,North,-999,0.0,0.0,81,0.00,,,-99.99,WeatherLink 5.7,2013-02-23 03:00:00,
2013-02-22 22:15:00,68.0,62.6,29.94,North,-999,0.0,0.0,83,0.00,,,-99.99,WeatherLink 5.7,2013-02-23 03:15:00,
2013-02-22 22:30:00,68.3,62.9,29.93,North,0,0.0,4.0,83,0.00,,,-99.99,WeatherLink 5.7,2013-02-23 03:30:00,
2013-02-22 22:45:00,68.6,63.6,29.93,North,0,0.0,3.0,84,0.00,,,-99.99,WeatherLink 5.7,2013-02-23 03:45:00,
2013-02-22 23:00:00,68.8,63.8,29.93,North,-999,0.0,0.0,84,0.00,,,-99.99,WeatherLink 5.7,2013-02-23 04:00:00,
2013-02-22 23:15:00,68.9,63.9,29.92,North,-999,0.0,0.0,84,0.00,,,-99.99,WeatherLink 5.7,2013-02-23 04:15:00,
2013-02-22 23:30:00,68.8,64.1,29.92,North,-999,0.0,0.0,85,0.00,,,-99.99,WeatherLink 5.7,2013-02-23 04:30:00,
2013-02-22 23:45:00,68.7,64.0,29.92,North,-999,0.0,0.0,85,0.00,,,-99.99,WeatherLink 5.7,2013-02-23 04:45:00,